createdAt,value
2023-10-19T00:02:08.946Z,7.36
2023-10-19T00:04:37.315Z,7.24
2023-10-19T00:07:06.958Z,7.63
2023-10-19T00:09:38.612Z,7.13
2023-10-19T00:12:11.012Z,7.11
2023-10-19T00:14:37.782Z,7.28
2023-10-19T00:17:11.901Z,7.97
2023-10-19T00:19:58.484Z,7.28
2023-10-19T00:22:25.593Z,7.52
2023-10-19T00:24:52.194Z,7.89
2023-10-19T00:27:20.580Z,7.34
2023-10-19T00:29:50.712Z,7.90
2023-10-19T00:32:20.553Z,7.64
2023-10-19T00:34:53.229Z,7.36
2023-10-19T00:37:27.358Z,7.46
2023-10-19T00:39:56.738Z,7.79
2023-10-19T00:42:32.472Z,7.39
2023-10-19T00:45:06.996Z,7.60
2023-10-19T00:47:41.535Z,8.00
2023-10-19T00:50:23.249Z,7.62
2023-10-19T00:52:51.378Z,7.61
2023-10-19T00:55:22.752Z,7.45
2023-10-19T00:57:51.034Z,7.79
2023-10-19T01:00:35.573Z,7.55
2023-10-19T01:03:06.300Z,8.14
2023-10-19T01:05:37.141Z,7.61
2023-10-19T01:08:29.126Z,7.58
2023-10-19T01:10:55.797Z,7.70
2023-10-19T01:13:28.879Z,7.62
2023-10-19T01:15:55.738Z,7.43
2023-10-19T01:18:23.539Z,8.14
2023-10-19T01:20:54.116Z,7.58
2023-10-19T01:23:26.573Z,7.78
2023-10-19T01:26:00.231Z,7.92
2023-10-19T01:28:51.264Z,7.90
2023-10-19T01:31:29.523Z,8.00
2023-10-19T01:33:58.847Z,7.54
2023-10-19T01:36:26.681Z,7.80
2023-10-19T01:38:56.533Z,8.27
2023-10-19T01:41:25.509Z,7.90
2023-10-19T01:43:54.876Z,8.00
2023-10-19T01:46:35.075Z,8.10
2023-10-19T01:49:04.773Z,8.05
2023-10-19T01:51:34.101Z,8.25
2023-10-19T01:54:06.274Z,8.30
2023-10-19T01:56:36.495Z,8.27
2023-10-19T01:59:06.214Z,7.80
2023-10-19T02:01:34.216Z,8.04
2023-10-19T02:04:04.497Z,7.93
2023-10-19T02:06:38.083Z,8.08
2023-10-19T02:09:18.074Z,8.60
2023-10-19T02:11:49.387Z,8.53
2023-10-19T02:14:20.196Z,8.35
2023-10-19T02:16:53.204Z,7.91
2023-10-19T02:19:21.644Z,8.11
2023-10-19T02:21:59.616Z,8.52
2023-10-19T02:24:27.309Z,8.06
2023-10-19T02:26:58.856Z,8.01
2023-10-19T02:29:27.275Z,8.46
2023-10-19T02:31:57.440Z,7.82
2023-10-19T02:34:24.560Z,7.84
2023-10-19T02:36:51.290Z,8.63
2023-10-19T02:39:18.893Z,8.50
2023-10-19T02:41:49.291Z,8.48
2023-10-19T02:44:23.288Z,8.48
2023-10-19T02:46:53.223Z,8.32
2023-10-19T02:49:22.449Z,8.41
2023-10-19T02:51:50.745Z,8.58
2023-10-19T02:54:31.215Z,8.42
2023-10-19T02:56:59.586Z,8.60
2023-10-19T02:59:33.103Z,8.68
2023-10-19T03:02:13.333Z,8.69
2023-10-19T03:04:43.086Z,8.47
2023-10-19T03:07:13.242Z,8.63
2023-10-19T03:09:55.230Z,8.71
2023-10-19T03:12:26.637Z,8.66
2023-10-19T03:14:53.419Z,8.65
2023-10-19T03:17:24.277Z,8.46
2023-10-19T03:19:51.654Z,8.71
2023-10-19T03:22:18.522Z,8.69
2023-10-19T03:24:45.323Z,8.45
2023-10-19T03:27:22.929Z,8.45
2023-10-19T03:29:55.369Z,8.66
2023-10-19T03:32:29.783Z,8.14
2023-10-19T03:34:57.803Z,8.13
2023-10-19T03:37:31.487Z,8.20
2023-10-19T03:39:59.841Z,8.26
2023-10-19T03:42:29.139Z,8.14
2023-10-19T03:44:56.129Z,8.09
2023-10-19T03:47:27.628Z,8.26
2023-10-19T03:49:54.794Z,8.28
2023-10-19T03:52:21.891Z,8.68
2023-10-19T03:54:50.315Z,8.81
2023-10-19T03:57:31.081Z,8.22
2023-10-19T03:59:58.416Z,8.32
2023-10-19T04:02:26.526Z,8.33
2023-10-19T04:04:53.731Z,8.54
2023-10-19T04:07:23.532Z,8.24
2023-10-19T04:10:09.392Z,8.45
2023-10-19T04:12:38.900Z,8.03
2023-10-19T04:15:18.186Z,7.63
2023-10-19T04:17:49.892Z,7.98
2023-10-19T04:20:20.172Z,7.78
2023-10-19T04:22:48.813Z,8.36
2023-10-19T04:25:30.567Z,8.03
2023-10-19T04:27:58.550Z,7.66
2023-10-19T04:30:25.722Z,8.21
2023-10-19T04:32:52.668Z,7.72
2023-10-19T04:35:23.052Z,7.44
2023-10-19T04:37:54.576Z,7.49
2023-10-19T04:40:22.652Z,7.59
2023-10-19T04:42:51.367Z,8.03
2023-10-19T04:45:18.125Z,8.18
2023-10-19T04:47:44.808Z,7.46
2023-10-19T04:50:11.962Z,7.50
2023-10-19T04:52:39.229Z,8.03
2023-10-19T04:55:06.523Z,7.32
2023-10-19T04:57:33.456Z,7.42
2023-10-19T05:00:00.354Z,7.52
2023-10-19T05:02:27.190Z,7.87
2023-10-19T05:04:53.844Z,7.90
2023-10-19T05:07:20.440Z,7.89
2023-10-19T05:09:48.158Z,7.89
2023-10-19T05:12:15.692Z,7.98
2023-10-19T05:14:43.517Z,7.66
2023-10-19T05:17:13.890Z,7.24
2023-10-19T05:19:41.215Z,7.76
2023-10-19T05:22:09.612Z,7.32
2023-10-19T05:24:37.120Z,7.39
2023-10-19T05:27:04.637Z,7.20
2023-10-19T05:29:34.576Z,7.30
2023-10-19T05:32:01.986Z,6.99
2023-10-19T05:34:30.644Z,7.24
2023-10-19T05:37:00.186Z,7.65
2023-10-19T05:39:30.071Z,7.80
2023-10-19T05:41:56.920Z,7.85
2023-10-19T05:44:26.081Z,7.80
2023-10-19T05:46:53.183Z,7.77
2023-10-19T05:49:19.800Z,7.71
2023-10-19T05:51:46.440Z,7.80
2023-10-19T05:54:13.675Z,7.88
2023-10-19T05:56:40.466Z,7.91
2023-10-19T05:59:07.928Z,7.91
2023-10-19T06:01:34.937Z,7.74
2023-10-19T06:04:01.915Z,7.86
2023-10-19T06:06:28.631Z,7.65
2023-10-19T06:08:55.321Z,7.82
2023-10-19T06:11:22.981Z,7.49
2023-10-19T06:13:49.772Z,7.66
2023-10-19T06:16:19.355Z,7.71
2023-10-19T06:18:46.257Z,7.87
2023-10-19T06:21:13.625Z,7.86
2023-10-19T06:23:40.340Z,7.68
2023-10-19T06:26:14.442Z,7.79
2023-10-19T06:28:42.230Z,7.74
2023-10-19T06:31:09.939Z,7.56
2023-10-19T06:33:37.234Z,7.80
2023-10-19T06:36:04.817Z,7.86
2023-10-19T06:38:32.798Z,7.77
2023-10-19T06:41:00.917Z,7.74
2023-10-19T06:43:31.099Z,7.89
2023-10-19T06:46:01.568Z,7.86
2023-10-19T06:48:28.414Z,7.89
2023-10-19T06:50:55.020Z,8.02
2023-10-19T06:53:22.859Z,8.04
2023-10-19T06:55:49.585Z,7.93
2023-10-19T06:58:16.344Z,8.03
2023-10-19T07:00:48.331Z,8.02
2023-10-19T07:03:15.229Z,8.05
2023-10-19T07:05:41.917Z,8.20
2023-10-19T07:08:08.468Z,8.13
2023-10-19T07:10:36.210Z,8.08
2023-10-19T07:13:03.313Z,8.14
2023-10-19T07:15:31.400Z,8.25
2023-10-19T07:17:59.519Z,8.08
2023-10-19T07:20:26.944Z,8.01
2023-10-19T07:22:55.576Z,8.08
2023-10-19T07:25:23.017Z,8.17
2023-10-19T07:27:51.079Z,7.97
2023-10-19T07:30:23.389Z,8.21
2023-10-19T07:32:55.671Z,8.18
2023-10-19T07:35:23.774Z,8.19
2023-10-19T07:37:51.584Z,8.12
2023-10-19T07:40:19.509Z,8.12
2023-10-19T07:42:47.700Z,8.06
2023-10-19T07:45:14.397Z,8.26
2023-10-19T07:47:42.062Z,8.23
2023-10-19T07:50:18.750Z,8.27
2023-10-19T07:52:50.809Z,8.19
2023-10-19T07:55:18.821Z,8.40
2023-10-19T07:57:45.992Z,8.38
2023-10-19T08:00:16.414Z,8.38
2023-10-19T08:02:43.500Z,8.25
2023-10-19T08:05:12.729Z,8.30
2023-10-19T08:07:47.925Z,8.29
2023-10-19T08:10:16.512Z,8.33
2023-10-19T08:12:44.289Z,8.29
2023-10-19T08:15:12.375Z,8.62
2023-10-19T08:17:40.697Z,8.65
2023-10-19T08:20:24.148Z,8.58
2023-10-19T08:22:53.251Z,8.35
2023-10-19T08:25:20.000Z,8.56
2023-10-19T08:27:49.643Z,8.57
2023-10-19T08:30:21.275Z,8.55
2023-10-19T08:32:49.356Z,8.60
2023-10-19T08:35:19.625Z,8.42
2023-10-19T08:37:47.340Z,8.54
2023-10-19T08:40:18.630Z,8.26
2023-10-19T08:42:46.742Z,8.30
2023-10-19T08:45:14.350Z,8.24
2023-10-19T08:47:57.834Z,8.24
2023-10-19T08:50:30.280Z,8.24
2023-10-19T08:53:04.764Z,8.31
2023-10-19T08:55:48.516Z,8.35
2023-10-19T08:58:17.937Z,8.28
2023-10-19T09:00:50.737Z,8.40
2023-10-19T09:03:25.663Z,8.43
2023-10-19T09:05:52.871Z,8.59
2023-10-19T09:08:21.085Z,8.53
2023-10-19T09:10:49.968Z,8.59
2023-10-19T09:13:19.869Z,8.47
2023-10-19T09:15:50.544Z,8.71
2023-10-19T09:18:22.140Z,8.53
2023-10-19T09:21:10.810Z,8.46
2023-10-19T09:23:38.078Z,8.53
2023-10-19T09:26:08.861Z,8.37
2023-10-19T09:28:37.437Z,8.38
2023-10-19T09:31:05.016Z,8.49
2023-10-19T09:33:35.667Z,8.58
2023-10-19T09:36:05.888Z,8.58
2023-10-19T09:38:34.190Z,8.36
2023-10-19T09:41:01.867Z,8.32
2023-10-19T09:43:36.005Z,8.33
2023-10-19T09:46:07.802Z,8.47
2023-10-19T09:48:42.772Z,8.41
2023-10-19T09:51:16.467Z,8.39
2023-10-19T09:53:48.588Z,8.34
2023-10-19T09:56:25.006Z,8.28
2023-10-19T09:59:00.917Z,8.51
2023-10-19T10:01:28.408Z,8.61
2023-10-19T10:03:55.375Z,8.63
2023-10-19T10:06:51.739Z,8.62
2023-10-19T10:09:25.227Z,8.82
2023-10-19T10:11:54.886Z,8.65
2023-10-19T10:14:27.173Z,8.70
2023-10-19T10:17:04.838Z,8.69
2023-10-19T10:19:31.978Z,8.76
2023-10-19T10:22:06.228Z,9.07
2023-10-19T10:24:33.067Z,8.82
2023-10-19T10:27:04.363Z,8.82
2023-10-19T10:29:32.721Z,8.99
2023-10-19T10:32:00.776Z,9.08
2023-10-19T10:34:43.778Z,9.11
2023-10-19T10:37:15.338Z,9.28
2023-10-19T10:39:42.049Z,9.10
2023-10-19T10:42:10.942Z,9.21
2023-10-19T10:44:41.617Z,9.05
2023-10-19T10:47:10.855Z,8.98
2023-10-19T10:49:57.233Z,9.11
2023-10-19T10:52:35.342Z,8.96
2023-10-19T10:55:13.896Z,9.16
2023-10-19T10:57:42.306Z,9.32
2023-10-19T11:00:11.136Z,9.34
2023-10-19T11:02:43.906Z,9.28
2023-10-19T11:05:15.107Z,9.25
2023-10-19T11:07:43.357Z,9.25
2023-10-19T11:10:11.225Z,9.04
2023-10-19T11:12:38.746Z,9.00
2023-10-19T11:15:10.855Z,8.73
2023-10-19T11:17:44.715Z,8.84
2023-10-19T11:20:22.324Z,8.61
2023-10-19T11:22:51.135Z,8.78
2023-10-19T11:25:25.444Z,8.90
2023-10-19T11:27:52.237Z,8.62
2023-10-19T11:30:30.459Z,8.56
2023-10-19T11:33:03.299Z,8.61
2023-10-19T11:35:32.593Z,8.78
2023-10-19T11:38:00.997Z,8.81
2023-10-19T11:40:28.358Z,8.95
2023-10-19T11:42:59.879Z,9.00
2023-10-19T11:45:26.737Z,8.94
2023-10-19T11:47:54.660Z,8.98
2023-10-19T11:50:21.415Z,9.01
2023-10-19T11:52:48.158Z,9.09
2023-10-19T11:55:16.095Z,9.11
2023-10-19T11:57:45.492Z,9.00
2023-10-19T12:00:26.169Z,9.13
2023-10-19T12:02:53.317Z,9.24
2023-10-19T12:05:20.130Z,9.03
2023-10-19T12:07:46.787Z,9.21
2023-10-19T12:10:13.828Z,9.17
2023-10-19T12:15:13.423Z,9.10
2023-10-19T12:17:40.343Z,8.96
2023-10-19T12:20:07.833Z,9.29
2023-10-19T12:22:40.435Z,9.18
2023-10-19T12:25:07.593Z,8.99
2023-10-19T12:27:34.324Z,9.17
2023-10-19T12:30:02.872Z,9.13
2023-10-19T12:32:29.622Z,9.21
2023-10-19T12:34:58.848Z,9.24
2023-10-19T12:37:25.965Z,9.15
2023-10-19T12:39:53.284Z,9.46
2023-10-19T12:42:19.868Z,9.41
2023-10-19T12:44:48.322Z,9.53
2023-10-19T12:47:15.432Z,9.64
2023-10-19T12:49:42.195Z,9.63
2023-10-19T12:52:11.821Z,9.80
2023-10-19T12:54:39.079Z,9.62
2023-10-19T12:57:08.647Z,9.64
2023-10-19T12:59:38.767Z,9.61
2023-10-19T13:02:09.736Z,9.58
2023-10-19T13:04:37.815Z,9.53
2023-10-19T13:07:06.565Z,9.38
2023-10-19T13:09:34.016Z,9.28
2023-10-19T13:12:01.359Z,9.31
2023-10-19T13:14:28.651Z,9.23
2023-10-19T13:16:55.966Z,9.17
2023-10-19T13:19:27.160Z,8.91
2023-10-19T13:21:55.533Z,9.05
2023-10-19T13:24:22.080Z,8.95
2023-10-19T13:26:49.687Z,9.13
2023-10-19T13:29:21.838Z,9.15
2023-10-19T13:31:51.676Z,9.05
2023-10-19T13:34:18.395Z,9.14
2023-10-19T13:36:47.744Z,9.19
2023-10-19T13:39:17.769Z,9.10
2023-10-19T13:41:45.301Z,9.17
2023-10-19T13:44:13.096Z,9.09
2023-10-19T13:46:40.018Z,9.17
2023-10-19T13:49:07.060Z,9.24
2023-10-19T13:51:34.429Z,9.21
2023-10-19T13:54:01.198Z,9.18
2023-10-19T13:56:28.251Z,9.12
2023-10-19T13:58:55.772Z,9.21
2023-10-19T14:01:25.616Z,9.15
2023-10-19T14:03:56.130Z,9.31
2023-10-19T14:06:24.958Z,9.23
2023-10-19T14:08:52.603Z,9.40
2023-10-19T14:11:47.989Z,9.10
2023-10-19T14:21:54.475Z,9.24
2023-10-19T14:24:21.271Z,8.97
2023-10-19T14:26:48.076Z,8.99
2023-10-19T14:29:14.992Z,8.67
2023-10-19T14:31:42.048Z,8.85
2023-10-19T14:34:11.567Z,9.29
2023-10-19T14:36:38.353Z,8.66
2023-10-19T14:39:06.403Z,8.60
2023-10-19T14:41:33.844Z,8.68
2023-10-19T14:44:02.288Z,8.67
2023-10-19T14:46:30.563Z,8.65
2023-10-19T14:48:57.207Z,8.67
2023-10-19T14:51:24.091Z,8.44
2023-10-19T14:53:50.860Z,8.55
2023-10-19T14:56:17.634Z,8.48
2023-10-19T14:58:44.360Z,9.11
2023-10-19T15:01:17.577Z,9.09
2023-10-19T15:03:44.369Z,8.59
2023-10-19T15:06:11.757Z,8.44
2023-10-19T15:08:38.886Z,9.03
2023-10-19T15:11:05.648Z,8.37
2023-10-19T15:13:32.424Z,8.57
2023-10-19T15:16:08.529Z,8.44
2023-10-19T15:18:37.367Z,8.48
2023-10-19T15:21:09.610Z,8.72
2023-10-19T15:23:37.489Z,8.34
2023-10-19T15:26:04.196Z,7.90
2023-10-19T15:28:34.338Z,8.56
2023-10-19T15:31:01.072Z,8.12
2023-10-19T15:33:28.379Z,8.75
2023-10-19T15:35:58.700Z,8.50
2023-10-19T15:38:25.396Z,8.73
2023-10-19T15:40:52.094Z,8.50
2023-10-19T15:43:18.672Z,8.68
2023-10-19T15:45:46.519Z,8.61
2023-10-19T15:48:13.555Z,8.67
2023-10-19T15:50:44.501Z,8.55
2023-10-19T15:53:11.577Z,8.38
2023-10-19T15:55:38.693Z,8.55
2023-10-19T15:58:06.562Z,8.52
2023-10-19T16:00:34.175Z,8.59
2023-10-19T16:03:01.305Z,8.59
2023-10-19T16:05:27.890Z,8.49
2023-10-19T16:07:54.458Z,8.46
2023-10-19T16:10:21.605Z,8.48
2023-10-19T16:12:48.557Z,8.53
2023-10-19T16:15:15.303Z,8.39
2023-10-19T16:17:44.365Z,8.31
2023-10-19T16:20:14.096Z,8.44
2023-10-19T16:22:41.112Z,8.32
2023-10-19T16:25:08.794Z,8.27
2023-10-19T16:27:35.493Z,8.46
2023-10-19T16:30:02.446Z,8.32
2023-10-19T16:32:31.535Z,8.20
2023-10-19T16:34:58.894Z,8.04
2023-10-19T16:37:25.869Z,8.23
2023-10-19T16:39:53.949Z,8.28
2023-10-19T16:42:21.947Z,8.16
2023-10-19T16:44:48.923Z,7.88
2023-10-19T16:47:15.527Z,8.03
2023-10-19T16:49:42.153Z,8.11
2023-10-19T16:52:08.878Z,7.98
2023-10-19T16:54:38.501Z,8.10
2023-10-19T16:57:05.298Z,8.00
2023-10-19T16:59:32.177Z,8.12
2023-10-19T17:01:59.150Z,8.08
2023-10-19T17:04:26.955Z,8.09
2023-10-19T17:06:53.844Z,8.30
2023-10-19T17:09:22.125Z,8.12
2023-10-19T17:11:50.913Z,8.03
2023-10-19T17:14:17.637Z,7.84
2023-10-19T17:16:45.564Z,8.01
2023-10-19T17:19:12.676Z,7.95
2023-10-19T17:21:42.067Z,8.00
2023-10-19T17:24:10.108Z,8.06
2023-10-19T17:26:36.753Z,8.16
2023-10-19T17:29:03.626Z,8.06
2023-10-19T17:31:30.795Z,7.98
2023-10-19T17:33:58.045Z,8.10
2023-10-19T17:36:25.441Z,8.12
2023-10-19T17:38:52.348Z,8.11
2023-10-19T17:41:19.576Z,8.02
2023-10-19T17:43:46.365Z,8.00
2023-10-19T17:46:15.231Z,8.08
2023-10-19T17:48:45.149Z,8.09
2023-10-19T17:51:14.569Z,7.89
2023-10-19T17:53:41.551Z,8.09
2023-10-19T17:56:09.005Z,7.99
2023-10-19T17:58:36.426Z,8.02
2023-10-19T18:01:10.816Z,8.07
2023-10-19T18:03:42.354Z,8.16
2023-10-19T18:06:10.575Z,8.09
2023-10-19T18:08:37.875Z,8.15
2023-10-19T18:11:04.938Z,8.23
2023-10-19T18:13:34.577Z,8.15
2023-10-19T18:16:04.063Z,8.10
2023-10-19T18:18:31.185Z,8.07
2023-10-19T18:20:58.756Z,8.03
2023-10-19T18:23:28.803Z,8.22
2023-10-19T18:25:57.137Z,7.91
2023-10-19T18:28:24.290Z,7.97
2023-10-19T18:31:00.257Z,8.16
2023-10-19T18:33:30.288Z,8.03
2023-10-19T18:36:01.470Z,8.12
2023-10-19T18:38:29.142Z,8.38
2023-10-19T18:41:00.319Z,8.06
2023-10-19T18:43:30.809Z,7.98
2023-10-19T18:45:57.862Z,7.96
2023-10-19T18:48:26.175Z,7.94
2023-10-19T18:51:06.114Z,8.10
2023-10-19T18:53:37.124Z,7.95
2023-10-19T18:56:07.495Z,7.90
2023-10-19T18:58:35.107Z,7.99
2023-10-19T19:01:03.434Z,7.88
2023-10-19T19:03:33.095Z,7.95
2023-10-19T19:06:01.842Z,7.82
2023-10-19T19:08:30.100Z,7.91
2023-10-19T19:10:58.620Z,8.04
2023-10-19T19:13:26.370Z,7.96
2023-10-19T19:15:54.345Z,7.84
2023-10-19T19:18:21.128Z,7.90
2023-10-19T19:20:47.813Z,7.95
2023-10-19T19:23:14.444Z,7.75
2023-10-19T19:25:44.353Z,7.90
2023-10-19T19:28:10.938Z,7.96
2023-10-19T19:30:38.603Z,8.07
2023-10-19T19:33:06.852Z,7.72
2023-10-19T19:35:33.504Z,7.87
2023-10-19T19:38:00.644Z,7.85
2023-10-19T19:40:27.311Z,7.73
2023-10-19T19:42:54.227Z,7.83
2023-10-19T19:45:23.797Z,7.80
2023-10-19T19:47:53.920Z,7.89
2023-10-19T19:50:21.816Z,7.82
2023-10-19T19:52:48.862Z,7.73
2023-10-19T19:55:15.806Z,7.81
2023-10-19T19:57:42.978Z,7.94
2023-10-19T20:00:16.918Z,7.98
2023-10-19T20:02:45.978Z,7.85
2023-10-19T20:05:13.489Z,7.92
2023-10-19T20:07:40.721Z,7.96
2023-10-19T20:10:11.026Z,7.88
2023-10-19T20:12:42.292Z,7.87
2023-10-19T20:15:09.490Z,7.80
2023-10-19T20:17:36.400Z,7.76
2023-10-19T20:20:12.637Z,7.60
2023-10-19T20:22:41.738Z,7.67
2023-10-19T20:25:12.697Z,7.79
2023-10-19T20:27:41.117Z,7.78
2023-10-19T20:30:08.629Z,7.80
2023-10-19T20:32:35.782Z,7.81
2023-10-19T20:35:02.327Z,7.76
2023-10-19T20:37:28.937Z,7.72
2023-10-19T20:39:59.001Z,7.72
2023-10-19T20:42:25.623Z,7.77
2023-10-19T20:44:53.426Z,7.61
2023-10-19T20:47:20.119Z,7.72
2023-10-19T20:49:46.878Z,7.79
2023-10-19T20:52:13.451Z,7.77
2023-10-19T20:54:40.745Z,7.90
2023-10-19T20:57:07.873Z,7.66
2023-10-19T20:59:34.434Z,7.82
2023-10-19T21:02:03.942Z,7.70
2023-10-19T21:04:31.933Z,7.68
2023-10-19T21:06:58.834Z,7.81
2023-10-19T21:09:25.479Z,7.90
2023-10-19T21:11:52.004Z,7.81
2023-10-19T21:14:18.700Z,7.68
2023-10-19T21:16:45.312Z,7.80
2023-10-19T21:19:22.381Z,7.65
2023-10-19T21:21:58.814Z,7.61
2023-10-19T21:24:25.441Z,7.69
2023-10-19T21:26:52.379Z,7.81
2023-10-19T21:29:19.132Z,7.91
2023-10-19T21:31:45.765Z,7.77
2023-10-19T21:34:12.508Z,7.67
2023-10-19T21:36:39.084Z,7.73
2023-10-19T21:39:05.854Z,7.70
2023-10-19T21:41:32.492Z,7.75
2023-10-19T21:43:59.794Z,7.58
2023-10-19T21:46:26.933Z,7.47
2023-10-19T21:48:53.571Z,7.87
2023-10-19T21:51:20.304Z,7.71
2023-10-19T21:53:51.138Z,7.83
2023-10-19T21:56:18.762Z,7.62
2023-10-19T21:58:45.471Z,7.80
2023-10-19T22:01:14.653Z,7.57
2023-10-19T22:03:42.563Z,7.87
2023-10-19T22:06:09.395Z,7.82
2023-10-19T22:08:36.525Z,7.89
2023-10-19T22:11:03.387Z,7.89
2023-10-19T22:13:31.884Z,7.90
2023-10-19T22:15:58.507Z,7.82
2023-10-19T22:18:25.300Z,7.68
2023-10-19T22:20:56.062Z,7.74
2023-10-19T22:23:23.566Z,7.83
2023-10-19T22:25:50.160Z,7.79
2023-10-19T22:28:17.404Z,7.83
2023-10-19T22:30:44.136Z,7.74
2023-10-19T22:33:10.811Z,7.39
2023-10-19T22:35:38.471Z,7.89
2023-10-19T22:38:06.027Z,7.85
2023-10-19T22:40:32.653Z,7.82
2023-10-19T22:42:59.298Z,7.80
2023-10-19T22:45:25.939Z,7.81
2023-10-19T22:47:53.247Z,7.75
2023-10-19T22:50:20.099Z,7.97
2023-10-19T22:52:47.058Z,7.87
2023-10-19T22:55:14.040Z,7.79
2023-10-19T22:57:41.996Z,7.85
2023-10-19T23:00:15.904Z,7.91
2023-10-19T23:02:46.421Z,8.05
2023-10-19T23:05:14.524Z,8.02
2023-10-19T23:07:42.622Z,7.82
2023-10-19T23:10:13.668Z,7.82
2023-10-19T23:12:42.228Z,7.85
2023-10-19T23:15:20.397Z,7.97
2023-10-19T23:17:50.875Z,7.62
2023-10-19T23:20:29.290Z,7.99
2023-10-19T23:22:58.107Z,7.84
2023-10-19T23:25:24.966Z,7.67
2023-10-19T23:27:51.576Z,7.75
2023-10-19T23:30:18.293Z,7.84
2023-10-19T23:32:44.993Z,7.76
2023-10-19T23:35:11.723Z,7.85
2023-10-19T23:37:38.413Z,7.82
2023-10-19T23:40:08.559Z,7.82
2023-10-19T23:42:35.727Z,7.65
2023-10-19T23:45:02.194Z,7.85
2023-10-19T23:47:28.904Z,7.72
2023-10-19T23:49:55.661Z,7.72
2023-10-19T23:52:22.262Z,7.76
2023-10-19T23:54:48.983Z,7.68
2023-10-19T23:57:18.333Z,7.65
2023-10-19T23:59:48.381Z,7.46
